sensor_id;sensor_type;location;lat;lon;timestamp;P1;durP1;ratioP1;P2;durP2;ratioP2
69736;SDS011;64476;55.004;73.342;2023-05-23T00:02:48;36.05;;;16.02;;
69736;SDS011;64476;55.004;73.342;2023-05-23T00:05:54;32.77;;;16.13;;
69736;SDS011;64476;55.004;73.342;2023-05-23T00:08:56;35.58;;;16.05;;
69736;SDS011;64476;55.004;73.342;2023-05-23T00:11:58;40.80;;;16.88;;
69736;SDS011;64476;55.004;73.342;2023-05-23T00:15:01;41.88;;;16.15;;
69736;SDS011;64476;55.004;73.342;2023-05-23T00:18:05;68.70;;;17.33;;
69736;SDS011;64476;55.004;73.342;2023-05-23T00:21:08;35.60;;;16.37;;
69736;SDS011;64476;55.004;73.342;2023-05-23T00:24:10;33.17;;;15.30;;
69736;SDS011;64476;55.004;73.342;2023-05-23T00:27:12;28.55;;;15.93;;
69736;SDS011;64476;55.004;73.342;2023-05-23T00:30:13;36.22;;;15.85;;
69736;SDS011;64476;55.004;73.342;2023-05-23T00:33:15;27.17;;;16.15;;
69736;SDS011;64476;55.004;73.342;2023-05-23T00:36:22;28.83;;;15.60;;
69736;SDS011;64476;55.004;73.342;2023-05-23T00:39:24;49.53;;;17.98;;
69736;SDS011;64476;55.004;73.342;2023-05-23T00:46:00;37.30;;;16.33;;
69736;SDS011;64476;55.004;73.342;2023-05-23T00:49:13;25.05;;;16.13;;
69736;SDS011;64476;55.004;73.342;2023-05-23T00:52:16;37.30;;;16.85;;
69736;SDS011;64476;55.004;73.342;2023-05-23T00:55:27;29.89;;;16.39;;
69736;SDS011;64476;55.004;73.342;2023-05-23T00:58:30;40.40;;;17.02;;
69736;SDS011;64476;55.004;73.342;2023-05-23T01:01:32;38.10;;;16.27;;
69736;SDS011;64476;55.004;73.342;2023-05-23T01:05:06;30.65;;;17.13;;
69736;SDS011;64476;55.004;73.342;2023-05-23T01:08:07;35.92;;;16.95;;
69736;SDS011;64476;55.004;73.342;2023-05-23T01:11:19;55.65;;;18.30;;
69736;SDS011;64476;55.004;73.342;2023-05-23T01:14:34;65.88;;;19.42;;
69736;SDS011;64476;55.004;73.342;2023-05-23T01:18:06;50.90;;;18.60;;
69736;SDS011;64476;55.004;73.342;2023-05-23T01:21:17;69.47;;;19.63;;
69736;SDS011;64476;55.004;73.342;2023-05-23T01:32:06;54.97;;;18.00;;
69736;SDS011;64476;55.004;73.342;2023-05-23T01:35:12;52.50;;;17.80;;
69736;SDS011;64476;55.004;73.342;2023-05-23T01:38:20;45.95;;;17.60;;
69736;SDS011;64476;55.004;73.342;2023-05-23T01:41:22;60.42;;;17.38;;
69736;SDS011;64476;55.004;73.342;2023-05-23T01:44:24;45.97;;;16.88;;
69736;SDS011;64476;55.004;73.342;2023-05-23T01:47:26;43.70;;;16.15;;
69736;SDS011;64476;55.004;73.342;2023-05-23T01:50:28;49.08;;;17.25;;
69736;SDS011;64476;55.004;73.342;2023-05-23T01:53:37;74.40;;;16.17;;
69736;SDS011;64476;55.004;73.342;2023-05-23T01:56:39;78.43;;;18.02;;
69736;SDS011;64476;55.004;73.342;2023-05-23T01:59:43;60.72;;;14.60;;
69736;SDS011;64476;55.004;73.342;2023-05-23T02:02:45;34.80;;;13.90;;
69736;SDS011;64476;55.004;73.342;2023-05-23T02:05:47;54.67;;;14.65;;
69736;SDS011;64476;55.004;73.342;2023-05-23T02:08:53;29.75;;;13.93;;
69736;SDS011;64476;55.004;73.342;2023-05-23T02:11:54;51.63;;;17.67;;
69736;SDS011;64476;55.004;73.342;2023-05-23T02:14:56;37.53;;;14.35;;
69736;SDS011;64476;55.004;73.342;2023-05-23T02:17:59;43.03;;;19.30;;
69736;SDS011;64476;55.004;73.342;2023-05-23T02:21:03;86.97;;;16.35;;
69736;SDS011;64476;55.004;73.342;2023-05-23T02:24:05;38.88;;;14.98;;
69736;SDS011;64476;55.004;73.342;2023-05-23T02:27:07;75.30;;;15.43;;
69736;SDS011;64476;55.004;73.342;2023-05-23T02:30:09;47.13;;;13.63;;
69736;SDS011;64476;55.004;73.342;2023-05-23T02:33:11;84.28;;;15.52;;
69736;SDS011;64476;55.004;73.342;2023-05-23T02:36:54;41.50;;;13.37;;
69736;SDS011;64476;55.004;73.342;2023-05-23T02:39:56;80.38;;;18.63;;
69736;SDS011;64476;55.004;73.342;2023-05-23T02:42:58;49.72;;;13.65;;
69736;SDS011;64476;55.004;73.342;2023-05-23T02:46:00;62.20;;;14.45;;
69736;SDS011;64476;55.004;73.342;2023-05-23T02:49:03;49.50;;;13.10;;
69736;SDS011;64476;55.004;73.342;2023-05-23T02:52:05;45.13;;;13.57;;
69736;SDS011;64476;55.004;73.342;2023-05-23T02:55:07;23.02;;;12.68;;
69736;SDS011;64476;55.004;73.342;2023-05-23T02:58:14;29.70;;;11.77;;
69736;SDS011;64476;55.004;73.342;2023-05-23T03:01:16;27.37;;;12.20;;
69736;SDS011;64476;55.004;73.342;2023-05-23T03:04:21;37.83;;;11.40;;
69736;SDS011;64476;55.004;73.342;2023-05-23T03:07:59;23.53;;;12.60;;
69736;SDS011;64476;55.004;73.342;2023-05-23T03:11:01;24.65;;;12.85;;
69736;SDS011;64476;55.004;73.342;2023-05-23T03:14:08;75.93;;;16.00;;
69736;SDS011;64476;55.004;73.342;2023-05-23T03:17:12;49.67;;;13.45;;
69736;SDS011;64476;55.004;73.342;2023-05-23T03:20:14;34.47;;;12.32;;
69736;SDS011;64476;55.004;73.342;2023-05-23T03:23:16;66.95;;;13.43;;
69736;SDS011;64476;55.004;73.342;2023-05-23T03:26:19;58.75;;;15.35;;
69736;SDS011;64476;55.004;73.342;2023-05-23T03:29:21;37.85;;;13.40;;
69736;SDS011;64476;55.004;73.342;2023-05-23T03:32:23;44.40;;;13.50;;
69736;SDS011;64476;55.004;73.342;2023-05-23T03:35:27;52.55;;;12.95;;
69736;SDS011;64476;55.004;73.342;2023-05-23T03:38:29;20.75;;;11.82;;
69736;SDS011;64476;55.004;73.342;2023-05-23T03:41:31;59.47;;;13.75;;
69736;SDS011;64476;55.004;73.342;2023-05-23T03:44:32;58.10;;;12.73;;
69736;SDS011;64476;55.004;73.342;2023-05-23T03:47:36;37.30;;;12.93;;
69736;SDS011;64476;55.004;73.342;2023-05-23T03:51:10;49.10;;;14.05;;
69736;SDS011;64476;55.004;73.342;2023-05-23T03:54:17;72.90;;;16.42;;
69736;SDS011;64476;55.004;73.342;2023-05-23T03:57:52;42.58;;;12.02;;
69736;SDS011;64476;55.004;73.342;2023-05-23T04:01:28;43.00;;;13.02;;
69736;SDS011;64476;55.004;73.342;2023-05-23T04:04:30;59.20;;;13.30;;
69736;SDS011;64476;55.004;73.342;2023-05-23T04:07:33;46.65;;;12.65;;
69736;SDS011;64476;55.004;73.342;2023-05-23T04:11:12;51.03;;;11.85;;
69736;SDS011;64476;55.004;73.342;2023-05-23T04:14:20;43.97;;;14.85;;
69736;SDS011;64476;55.004;73.342;2023-05-23T04:20:27;21.00;;;11.68;;
69736;SDS011;64476;55.004;73.342;2023-05-23T04:23:29;40.90;;;11.85;;
69736;SDS011;64476;55.004;73.342;2023-05-23T04:26:31;21.10;;;10.90;;
69736;SDS011;64476;55.004;73.342;2023-05-23T04:29:33;22.63;;;9.73;;
69736;SDS011;64476;55.004;73.342;2023-05-23T04:32:41;34.27;;;10.87;;
69736;SDS011;64476;55.004;73.342;2023-05-23T04:35:45;46.90;;;12.68;;
69736;SDS011;64476;55.004;73.342;2023-05-23T04:38:53;35.45;;;12.27;;
69736;SDS011;64476;55.004;73.342;2023-05-23T04:41:58;27.73;;;10.35;;
69736;SDS011;64476;55.004;73.342;2023-05-23T04:45:27;23.98;;;12.00;;
69736;SDS011;64476;55.004;73.342;2023-05-23T04:49:15;25.63;;;9.50;;
69736;SDS011;64476;55.004;73.342;2023-05-23T04:52:49;20.70;;;9.70;;
69736;SDS011;64476;55.004;73.342;2023-05-23T04:55:52;51.55;;;10.85;;
69736;SDS011;64476;55.004;73.342;2023-05-23T04:58:54;45.90;;;9.02;;
69736;SDS011;64476;55.004;73.342;2023-05-23T05:01:57;36.58;;;7.68;;
69736;SDS011;64476;55.004;73.342;2023-05-23T05:04:59;37.40;;;10.23;;
69736;SDS011;64476;55.004;73.342;2023-05-23T05:11:04;37.72;;;7.85;;
69736;SDS011;64476;55.004;73.342;2023-05-23T05:14:06;31.65;;;7.72;;
69736;SDS011;64476;55.004;73.342;2023-05-23T05:20:27;41.07;;;8.53;;
69736;SDS011;64476;55.004;73.342;2023-05-23T05:23:29;35.80;;;7.70;;
69736;SDS011;64476;55.004;73.342;2023-05-23T05:26:33;30.23;;;9.30;;
69736;SDS011;64476;55.004;73.342;2023-05-23T05:29:36;28.17;;;7.88;;
69736;SDS011;64476;55.004;73.342;2023-05-23T05:32:38;23.08;;;6.72;;
69736;SDS011;64476;55.004;73.342;2023-05-23T05:35:43;34.67;;;8.13;;
69736;SDS011;64476;55.004;73.342;2023-05-23T05:38:45;37.50;;;8.05;;
69736;SDS011;64476;55.004;73.342;2023-05-23T05:41:52;53.58;;;9.50;;
69736;SDS011;64476;55.004;73.342;2023-05-23T05:44:54;36.22;;;9.27;;
69736;SDS011;64476;55.004;73.342;2023-05-23T05:47:56;27.02;;;8.38;;
69736;SDS011;64476;55.004;73.342;2023-05-23T05:50:59;27.27;;;7.60;;
69736;SDS011;64476;55.004;73.342;2023-05-23T05:54:37;43.22;;;8.07;;
69736;SDS011;64476;55.004;73.342;2023-05-23T05:57:39;18.73;;;8.27;;
69736;SDS011;64476;55.004;73.342;2023-05-23T06:00:44;27.15;;;8.57;;
69736;SDS011;64476;55.004;73.342;2023-05-23T06:03:51;24.52;;;7.63;;
69736;SDS011;64476;55.004;73.342;2023-05-23T06:06:53;31.00;;;7.53;;
69736;SDS011;64476;55.004;73.342;2023-05-23T06:09:55;76.95;;;9.82;;
69736;SDS011;64476;55.004;73.342;2023-05-23T06:12:57;104.43;;;10.52;;
69736;SDS011;64476;55.004;73.342;2023-05-23T06:15:59;98.70;;;12.50;;
69736;SDS011;64476;55.004;73.342;2023-05-23T06:19:01;35.38;;;7.63;;
69736;SDS011;64476;55.004;73.342;2023-05-23T06:22:04;46.67;;;7.85;;
69736;SDS011;64476;55.004;73.342;2023-05-23T06:25:06;25.65;;;7.78;;
69736;SDS011;64476;55.004;73.342;2023-05-23T06:28:09;20.77;;;6.60;;
69736;SDS011;64476;55.004;73.342;2023-05-23T06:31:45;32.03;;;7.43;;
69736;SDS011;64476;55.004;73.342;2023-05-23T06:34:47;58.78;;;8.57;;
69736;SDS011;64476;55.004;73.342;2023-05-23T06:37:49;23.85;;;6.75;;
69736;SDS011;64476;55.004;73.342;2023-05-23T06:40:52;38.60;;;7.47;;
69736;SDS011;64476;55.004;73.342;2023-05-23T06:43:54;161.20;;;13.27;;
69736;SDS011;64476;55.004;73.342;2023-05-23T06:46:58;144.45;;;12.85;;
69736;SDS011;64476;55.004;73.342;2023-05-23T06:50:01;64.78;;;7.65;;
69736;SDS011;64476;55.004;73.342;2023-05-23T06:53:04;66.63;;;9.20;;
69736;SDS011;64476;55.004;73.342;2023-05-23T06:56:06;80.03;;;8.90;;
69736;SDS011;64476;55.004;73.342;2023-05-23T06:59:17;120.28;;;11.82;;
69736;SDS011;64476;55.004;73.342;2023-05-23T07:02:20;64.57;;;9.45;;
69736;SDS011;64476;55.004;73.342;2023-05-23T07:05:53;114.77;;;10.40;;
69736;SDS011;64476;55.004;73.342;2023-05-23T07:08:59;68.85;;;9.57;;
69736;SDS011;64476;55.004;73.342;2023-05-23T07:12:07;68.13;;;9.02;;
69736;SDS011;64476;55.004;73.342;2023-05-23T07:15:12;80.72;;;8.57;;
69736;SDS011;64476;55.004;73.342;2023-05-23T07:18:24;85.53;;;8.90;;
69736;SDS011;64476;55.004;73.342;2023-05-23T07:21:26;89.65;;;8.57;;
69736;SDS011;64476;55.004;73.342;2023-05-23T07:24:28;48.65;;;7.10;;
69736;SDS011;64476;55.004;73.342;2023-05-23T07:27:31;16.60;;;6.22;;
69736;SDS011;64476;55.004;73.342;2023-05-23T07:30:33;162.80;;;14.10;;
69736;SDS011;64476;55.004;73.342;2023-05-23T07:33:35;31.35;;;6.57;;
69736;SDS011;64476;55.004;73.342;2023-05-23T07:36:38;19.83;;;6.07;;
69736;SDS011;64476;55.004;73.342;2023-05-23T07:39:44;57.25;;;7.57;;
69736;SDS011;64476;55.004;73.342;2023-05-23T07:42:47;39.63;;;7.40;;
69736;SDS011;64476;55.004;73.342;2023-05-23T07:45:49;77.60;;;9.97;;
69736;SDS011;64476;55.004;73.342;2023-05-23T07:48:52;58.85;;;8.32;;
69736;SDS011;64476;55.004;73.342;2023-05-23T07:52:00;30.97;;;6.30;;
69736;SDS011;64476;55.004;73.342;2023-05-23T07:55:02;30.90;;;6.38;;
69736;SDS011;64476;55.004;73.342;2023-05-23T07:58:05;29.48;;;8.57;;
69736;SDS011;64476;55.004;73.342;2023-05-23T08:01:07;29.53;;;6.47;;
69736;SDS011;64476;55.004;73.342;2023-05-23T08:04:28;79.65;;;7.95;;
69736;SDS011;64476;55.004;73.342;2023-05-23T08:07:36;41.15;;;6.65;;
69736;SDS011;64476;55.004;73.342;2023-05-23T08:10:39;24.93;;;6.17;;
69736;SDS011;64476;55.004;73.342;2023-05-23T08:17:44;43.28;;;7.25;;
69736;SDS011;64476;55.004;73.342;2023-05-23T08:21:18;66.80;;;7.43;;
69736;SDS011;64476;55.004;73.342;2023-05-23T08:24:20;32.67;;;6.50;;
69736;SDS011;64476;55.004;73.342;2023-05-23T08:27:22;17.52;;;5.25;;
69736;SDS011;64476;55.004;73.342;2023-05-23T08:30:29;32.52;;;7.08;;
69736;SDS011;64476;55.004;73.342;2023-05-23T08:33:34;82.00;;;7.90;;
69736;SDS011;64476;55.004;73.342;2023-05-23T08:36:36;31.45;;;5.05;;
69736;SDS011;64476;55.004;73.342;2023-05-23T08:39:42;33.40;;;5.63;;
69736;SDS011;64476;55.004;73.342;2023-05-23T08:43:30;27.13;;;5.53;;
69736;SDS011;64476;55.004;73.342;2023-05-23T08:46:32;23.80;;;4.57;;
69736;SDS011;64476;55.004;73.342;2023-05-23T08:50:27;16.83;;;5.10;;
69736;SDS011;64476;55.004;73.342;2023-05-23T08:53:47;29.52;;;6.38;;
69736;SDS011;64476;55.004;73.342;2023-05-23T08:56:49;11.60;;;4.22;;
69736;SDS011;64476;55.004;73.342;2023-05-23T08:59:52;34.35;;;6.00;;
69736;SDS011;64476;55.004;73.342;2023-05-23T09:02:59;23.25;;;5.82;;
69736;SDS011;64476;55.004;73.342;2023-05-23T09:06:17;29.80;;;6.85;;
69736;SDS011;64476;55.004;73.342;2023-05-23T09:09:22;29.23;;;5.50;;
69736;SDS011;64476;55.004;73.342;2023-05-23T09:12:25;35.92;;;4.85;;
69736;SDS011;64476;55.004;73.342;2023-05-23T09:16:01;27.42;;;5.22;;
69736;SDS011;64476;55.004;73.342;2023-05-23T09:19:11;19.40;;;5.22;;
69736;SDS011;64476;55.004;73.342;2023-05-23T09:22:48;38.53;;;4.53;;
69736;SDS011;64476;55.004;73.342;2023-05-23T09:25:54;90.00;;;7.60;;
69736;SDS011;64476;55.004;73.342;2023-05-23T09:28:57;34.00;;;5.63;;
69736;SDS011;64476;55.004;73.342;2023-05-23T09:32:11;10.45;;;4.28;;
69736;SDS011;64476;55.004;73.342;2023-05-23T09:35:16;21.73;;;4.00;;
69736;SDS011;64476;55.004;73.342;2023-05-23T09:42:40;46.43;;;4.90;;
69736;SDS011;64476;55.004;73.342;2023-05-23T09:45:43;19.13;;;4.68;;
69736;SDS011;64476;55.004;73.342;2023-05-23T09:48:49;9.13;;;3.40;;
69736;SDS011;64476;55.004;73.342;2023-05-23T09:51:57;36.45;;;5.00;;
69736;SDS011;64476;55.004;73.342;2023-05-23T09:55:00;39.90;;;4.75;;
69736;SDS011;64476;55.004;73.342;2023-05-23T09:58:02;27.30;;;3.93;;
69736;SDS011;64476;55.004;73.342;2023-05-23T10:01:10;19.40;;;4.20;;
69736;SDS011;64476;55.004;73.342;2023-05-23T10:04:13;50.80;;;4.15;;
69736;SDS011;64476;55.004;73.342;2023-05-23T10:07:19;14.27;;;3.10;;
69736;SDS011;64476;55.004;73.342;2023-05-23T10:10:29;11.63;;;3.85;;
69736;SDS011;64476;55.004;73.342;2023-05-23T10:13:32;35.45;;;5.38;;
69736;SDS011;64476;55.004;73.342;2023-05-23T10:19:59;20.15;;;3.50;;
69736;SDS011;64476;55.004;73.342;2023-05-23T10:23:08;19.60;;;3.83;;
69736;SDS011;64476;55.004;73.342;2023-05-23T10:26:12;9.13;;;2.78;;
69736;SDS011;64476;55.004;73.342;2023-05-23T10:32:49;11.68;;;3.40;;
69736;SDS011;64476;55.004;73.342;2023-05-23T10:36:07;8.20;;;2.90;;
69736;SDS011;64476;55.004;73.342;2023-05-23T10:39:15;17.17;;;3.60;;
69736;SDS011;64476;55.004;73.342;2023-05-23T10:46:09;34.53;;;4.07;;
69736;SDS011;64476;55.004;73.342;2023-05-23T10:49:14;25.70;;;4.30;;
69736;SDS011;64476;55.004;73.342;2023-05-23T10:52:22;24.77;;;4.47;;
69736;SDS011;64476;55.004;73.342;2023-05-23T10:55:34;102.65;;;9.13;;
69736;SDS011;64476;55.004;73.342;2023-05-23T10:58:40;25.80;;;4.45;;
69736;SDS011;64476;55.004;73.342;2023-05-23T11:01:41;23.20;;;3.83;;
69736;SDS011;64476;55.004;73.342;2023-05-23T11:04:48;23.40;;;4.10;;
69736;SDS011;64476;55.004;73.342;2023-05-23T11:08:23;26.42;;;3.65;;
69736;SDS011;64476;55.004;73.342;2023-05-23T11:11:25;15.03;;;3.63;;
69736;SDS011;64476;55.004;73.342;2023-05-23T11:15:18;58.97;;;5.90;;
69736;SDS011;64476;55.004;73.342;2023-05-23T11:18:22;51.67;;;5.45;;
69736;SDS011;64476;55.004;73.342;2023-05-23T11:21:26;45.63;;;5.32;;
69736;SDS011;64476;55.004;73.342;2023-05-23T11:28:12;10.50;;;2.78;;
69736;SDS011;64476;55.004;73.342;2023-05-23T11:31:15;11.33;;;2.63;;
69736;SDS011;64476;55.004;73.342;2023-05-23T11:34:19;12.55;;;3.67;;
69736;SDS011;64476;55.004;73.342;2023-05-23T11:37:21;17.35;;;3.55;;
69736;SDS011;64476;55.004;73.342;2023-05-23T11:40:30;14.02;;;3.70;;
69736;SDS011;64476;55.004;73.342;2023-05-23T11:43:36;6.93;;;2.80;;
69736;SDS011;64476;55.004;73.342;2023-05-23T11:46:38;31.00;;;5.13;;
69736;SDS011;64476;55.004;73.342;2023-05-23T11:49:41;7.78;;;3.20;;
69736;SDS011;64476;55.004;73.342;2023-05-23T11:52:46;21.58;;;3.85;;
69736;SDS011;64476;55.004;73.342;2023-05-23T11:55:56;22.37;;;3.70;;
69736;SDS011;64476;55.004;73.342;2023-05-23T11:59:00;13.82;;;5.05;;
69736;SDS011;64476;55.004;73.342;2023-05-23T12:02:41;15.63;;;4.15;;
69736;SDS011;64476;55.004;73.342;2023-05-23T12:05:44;9.77;;;3.55;;
69736;SDS011;64476;55.004;73.342;2023-05-23T12:08:52;10.63;;;2.83;;
69736;SDS011;64476;55.004;73.342;2023-05-23T12:11:54;6.50;;;3.20;;
69736;SDS011;64476;55.004;73.342;2023-05-23T12:14:55;8.75;;;3.70;;
69736;SDS011;64476;55.004;73.342;2023-05-23T12:17:58;18.20;;;3.33;;
69736;SDS011;64476;55.004;73.342;2023-05-23T12:21:00;6.75;;;3.15;;
69736;SDS011;64476;55.004;73.342;2023-05-23T12:27:49;13.30;;;3.22;;
69736;SDS011;64476;55.004;73.342;2023-05-23T12:30:54;15.40;;;4.10;;
69736;SDS011;64476;55.004;73.342;2023-05-23T12:33:57;16.10;;;3.47;;
69736;SDS011;64476;55.004;73.342;2023-05-23T12:36:59;14.83;;;4.13;;
69736;SDS011;64476;55.004;73.342;2023-05-23T12:40:10;20.40;;;3.60;;
69736;SDS011;64476;55.004;73.342;2023-05-23T12:43:23;16.88;;;2.88;;
69736;SDS011;64476;55.004;73.342;2023-05-23T12:46:25;16.63;;;3.67;;
69736;SDS011;64476;55.004;73.342;2023-05-23T12:49:28;20.67;;;4.20;;
69736;SDS011;64476;55.004;73.342;2023-05-23T12:52:30;15.23;;;3.97;;
69736;SDS011;64476;55.004;73.342;2023-05-23T12:55:32;22.92;;;3.10;;
69736;SDS011;64476;55.004;73.342;2023-05-23T12:59:05;15.05;;;3.35;;
69736;SDS011;64476;55.004;73.342;2023-05-23T13:02:11;22.60;;;3.42;;
69736;SDS011;64476;55.004;73.342;2023-05-23T13:05:13;9.48;;;3.20;;
69736;SDS011;64476;55.004;73.342;2023-05-23T13:08:14;7.60;;;4.50;;
69736;SDS011;64476;55.004;73.342;2023-05-23T13:11:17;6.93;;;3.53;;
69736;SDS011;64476;55.004;73.342;2023-05-23T13:14:19;16.85;;;3.63;;
69736;SDS011;64476;55.004;73.342;2023-05-23T13:17:51;15.60;;;3.73;;
69736;SDS011;64476;55.004;73.342;2023-05-23T13:20:53;16.02;;;3.78;;
69736;SDS011;64476;55.004;73.342;2023-05-23T13:23:55;7.45;;;3.92;;
69736;SDS011;64476;55.004;73.342;2023-05-23T13:27:32;11.13;;;3.25;;
69736;SDS011;64476;55.004;73.342;2023-05-23T13:30:36;9.77;;;2.77;;
69736;SDS011;64476;55.004;73.342;2023-05-23T13:33:45;26.83;;;4.50;;
69736;SDS011;64476;55.004;73.342;2023-05-23T13:36:47;8.82;;;4.07;;
69736;SDS011;64476;55.004;73.342;2023-05-23T13:39:49;16.40;;;5.30;;
69736;SDS011;64476;55.004;73.342;2023-05-23T13:42:50;37.07;;;5.17;;
69736;SDS011;64476;55.004;73.342;2023-05-23T13:45:52;20.10;;;3.90;;
69736;SDS011;64476;55.004;73.342;2023-05-23T13:48:55;20.95;;;4.05;;
69736;SDS011;64476;55.004;73.342;2023-05-23T13:51:57;15.02;;;3.90;;
69736;SDS011;64476;55.004;73.342;2023-05-23T13:54:58;13.57;;;4.40;;
69736;SDS011;64476;55.004;73.342;2023-05-23T14:01:02;16.77;;;4.82;;
69736;SDS011;64476;55.004;73.342;2023-05-23T14:04:38;29.38;;;5.20;;
69736;SDS011;64476;55.004;73.342;2023-05-23T14:07:40;16.05;;;4.80;;
69736;SDS011;64476;55.004;73.342;2023-05-23T14:11:14;15.13;;;4.90;;
69736;SDS011;64476;55.004;73.342;2023-05-23T14:14:19;13.95;;;3.25;;
69736;SDS011;64476;55.004;73.342;2023-05-23T14:17:21;24.00;;;4.25;;
69736;SDS011;64476;55.004;73.342;2023-05-23T14:20:27;32.55;;;5.40;;
69736;SDS011;64476;55.004;73.342;2023-05-23T14:23:31;25.23;;;5.10;;
69736;SDS011;64476;55.004;73.342;2023-05-23T14:26:36;25.88;;;5.22;;
69736;SDS011;64476;55.004;73.342;2023-05-23T14:29:37;49.97;;;6.03;;
69736;SDS011;64476;55.004;73.342;2023-05-23T14:32:41;31.83;;;5.90;;
69736;SDS011;64476;55.004;73.342;2023-05-23T14:35:43;21.48;;;5.63;;
69736;SDS011;64476;55.004;73.342;2023-05-23T14:38:45;22.00;;;5.90;;
69736;SDS011;64476;55.004;73.342;2023-05-23T14:41:47;17.88;;;6.88;;
69736;SDS011;64476;55.004;73.342;2023-05-23T14:44:52;16.70;;;7.20;;
69736;SDS011;64476;55.004;73.342;2023-05-23T14:47:54;25.27;;;7.07;;
69736;SDS011;64476;55.004;73.342;2023-05-23T14:50:57;49.23;;;9.53;;
69736;SDS011;64476;55.004;73.342;2023-05-23T14:54:01;30.63;;;7.25;;
69736;SDS011;64476;55.004;73.342;2023-05-23T14:57:03;20.90;;;6.70;;
69736;SDS011;64476;55.004;73.342;2023-05-23T15:00:05;25.52;;;7.32;;
69736;SDS011;64476;55.004;73.342;2023-05-23T15:03:15;30.80;;;7.67;;
69736;SDS011;64476;55.004;73.342;2023-05-23T15:06:17;31.35;;;6.45;;
69736;SDS011;64476;55.004;73.342;2023-05-23T15:09:19;32.88;;;8.73;;
69736;SDS011;64476;55.004;73.342;2023-05-23T15:12:21;30.60;;;6.80;;
69736;SDS011;64476;55.004;73.342;2023-05-23T15:15:27;29.00;;;7.22;;
69736;SDS011;64476;55.004;73.342;2023-05-23T15:19:11;33.75;;;7.85;;
69736;SDS011;64476;55.004;73.342;2023-05-23T15:22:13;29.52;;;8.05;;
69736;SDS011;64476;55.004;73.342;2023-05-23T15:25:15;38.30;;;7.93;;
69736;SDS011;64476;55.004;73.342;2023-05-23T15:28:17;26.80;;;7.45;;
69736;SDS011;64476;55.004;73.342;2023-05-23T15:31:19;53.28;;;9.32;;
69736;SDS011;64476;55.004;73.342;2023-05-23T15:34:21;40.20;;;9.13;;
69736;SDS011;64476;55.004;73.342;2023-05-23T15:37:22;33.55;;;8.98;;
69736;SDS011;64476;55.004;73.342;2023-05-23T15:40:27;32.33;;;9.25;;
69736;SDS011;64476;55.004;73.342;2023-05-23T15:43:29;38.95;;;9.20;;
69736;SDS011;64476;55.004;73.342;2023-05-23T15:46:32;32.97;;;8.57;;
69736;SDS011;64476;55.004;73.342;2023-05-23T15:49:34;31.52;;;8.65;;
69736;SDS011;64476;55.004;73.342;2023-05-23T15:52:37;38.03;;;8.88;;
69736;SDS011;64476;55.004;73.342;2023-05-23T15:56:12;33.63;;;8.45;;
69736;SDS011;64476;55.004;73.342;2023-05-23T15:59:15;35.63;;;9.07;;
69736;SDS011;64476;55.004;73.342;2023-05-23T16:02:18;32.08;;;10.45;;
69736;SDS011;64476;55.004;73.342;2023-05-23T16:05:27;27.41;;;12.91;;
69736;SDS011;64476;55.004;73.342;2023-05-23T16:08:29;43.33;;;14.00;;
69736;SDS011;64476;55.004;73.342;2023-05-23T16:11:30;50.45;;;12.77;;
69736;SDS011;64476;55.004;73.342;2023-05-23T16:14:32;47.53;;;12.38;;
69736;SDS011;64476;55.004;73.342;2023-05-23T16:17:34;50.55;;;13.38;;
69736;SDS011;64476;55.004;73.342;2023-05-23T16:20:36;39.03;;;11.03;;
69736;SDS011;64476;55.004;73.342;2023-05-23T16:24:08;37.03;;;10.13;;
69736;SDS011;64476;55.004;73.342;2023-05-23T16:27:12;45.60;;;9.90;;
69736;SDS011;64476;55.004;73.342;2023-05-23T16:30:14;45.65;;;10.05;;
69736;SDS011;64476;55.004;73.342;2023-05-23T16:36:49;31.70;;;7.67;;
69736;SDS011;64476;55.004;73.342;2023-05-23T16:39:51;29.65;;;8.13;;
69736;SDS011;64476;55.004;73.342;2023-05-23T16:42:53;30.88;;;9.32;;
69736;SDS011;64476;55.004;73.342;2023-05-23T16:45:55;27.08;;;9.15;;
69736;SDS011;64476;55.004;73.342;2023-05-23T16:48:58;24.90;;;10.32;;
69736;SDS011;64476;55.004;73.342;2023-05-23T16:52:04;30.87;;;10.87;;
69736;SDS011;64476;55.004;73.342;2023-05-23T16:55:08;26.00;;;8.95;;
69736;SDS011;64476;55.004;73.342;2023-05-23T16:58:10;18.67;;;8.30;;
69736;SDS011;64476;55.004;73.342;2023-05-23T17:01:12;18.23;;;7.28;;
69736;SDS011;64476;55.004;73.342;2023-05-23T17:04:15;11.52;;;6.43;;
69736;SDS011;64476;55.004;73.342;2023-05-23T17:07:17;20.75;;;6.63;;
69736;SDS011;64476;55.004;73.342;2023-05-23T17:10:27;19.23;;;6.60;;
69736;SDS011;64476;55.004;73.342;2023-05-23T17:13:30;17.80;;;6.72;;
69736;SDS011;64476;55.004;73.342;2023-05-23T17:17:07;14.68;;;6.80;;
69736;SDS011;64476;55.004;73.342;2023-05-23T17:20:09;20.38;;;6.57;;
69736;SDS011;64476;55.004;73.342;2023-05-23T17:23:12;11.67;;;6.97;;
69736;SDS011;64476;55.004;73.342;2023-05-23T17:26:14;14.75;;;6.75;;
69736;SDS011;64476;55.004;73.342;2023-05-23T17:29:15;19.45;;;6.63;;
69736;SDS011;64476;55.004;73.342;2023-05-23T17:32:17;24.23;;;6.75;;
69736;SDS011;64476;55.004;73.342;2023-05-23T17:35:27;32.82;;;6.40;;
69736;SDS011;64476;55.004;73.342;2023-05-23T17:38:28;17.05;;;6.82;;
69736;SDS011;64476;55.004;73.342;2023-05-23T17:41:30;22.08;;;6.93;;
69736;SDS011;64476;55.004;73.342;2023-05-23T17:44:32;32.58;;;6.65;;
69736;SDS011;64476;55.004;73.342;2023-05-23T17:48:15;28.00;;;6.28;;
69736;SDS011;64476;55.004;73.342;2023-05-23T17:51:20;11.40;;;5.57;;
69736;SDS011;64476;55.004;73.342;2023-05-23T17:54:54;13.65;;;6.45;;
69736;SDS011;64476;55.004;73.342;2023-05-23T17:57:56;24.80;;;6.83;;
69736;SDS011;64476;55.004;73.342;2023-05-23T18:00:58;19.17;;;6.57;;
69736;SDS011;64476;55.004;73.342;2023-05-23T18:04:00;15.27;;;7.00;;
69736;SDS011;64476;55.004;73.342;2023-05-23T18:07:39;17.85;;;6.20;;
69736;SDS011;64476;55.004;73.342;2023-05-23T18:10:43;21.20;;;6.10;;
69736;SDS011;64476;55.004;73.342;2023-05-23T18:13:47;25.45;;;6.93;;
69736;SDS011;64476;55.004;73.342;2023-05-23T18:16:49;28.77;;;6.97;;
69736;SDS011;64476;55.004;73.342;2023-05-23T18:26:29;21.83;;;6.80;;
69736;SDS011;64476;55.004;73.342;2023-05-23T18:29:31;12.68;;;6.22;;
69736;SDS011;64476;55.004;73.342;2023-05-23T18:32:32;13.38;;;5.90;;
69736;SDS011;64476;55.004;73.342;2023-05-23T18:35:34;14.70;;;6.73;;
69736;SDS011;64476;55.004;73.342;2023-05-23T18:38:36;17.98;;;6.30;;
69736;SDS011;64476;55.004;73.342;2023-05-23T18:41:38;17.02;;;6.80;;
69736;SDS011;64476;55.004;73.342;2023-05-23T18:44:40;14.98;;;6.82;;
69736;SDS011;64476;55.004;73.342;2023-05-23T18:47:52;15.27;;;7.07;;
69736;SDS011;64476;55.004;73.342;2023-05-23T18:50:53;11.98;;;6.35;;
69736;SDS011;64476;55.004;73.342;2023-05-23T18:53:57;12.57;;;6.78;;
69736;SDS011;64476;55.004;73.342;2023-05-23T18:56:59;15.60;;;5.93;;
69736;SDS011;64476;55.004;73.342;2023-05-23T19:00:02;17.40;;;6.70;;
69736;SDS011;64476;55.004;73.342;2023-05-23T19:03:11;25.85;;;6.40;;
69736;SDS011;64476;55.004;73.342;2023-05-23T19:06:13;13.18;;;5.90;;
69736;SDS011;64476;55.004;73.342;2023-05-23T19:09:14;21.10;;;6.15;;
69736;SDS011;64476;55.004;73.342;2023-05-23T19:12:17;14.63;;;6.32;;